createdAt,value
2017-09-28T00:00:29.266Z,0
2017-09-28T00:01:29.255Z,0
2017-09-28T00:02:29.246Z,0
2017-09-28T00:03:29.238Z,0
2017-09-28T00:04:29.230Z,0
2017-09-28T00:05:29.224Z,0
2017-09-28T00:06:29.221Z,0
2017-09-28T00:07:28.997Z,0
2017-09-28T00:08:28.890Z,0
2017-09-28T00:09:28.883Z,0
2017-09-28T00:10:29.200Z,0
2017-09-28T00:11:28.880Z,0
2017-09-28T00:12:29.205Z,0
2017-09-28T00:13:29.178Z,0
2017-09-28T00:14:28.855Z,0
2017-09-28T00:15:29.167Z,0
2017-09-28T00:16:29.161Z,0
2017-09-28T00:17:29.156Z,0
2017-09-28T00:18:29.145Z,0
2017-09-28T00:19:29.170Z,0
2017-09-28T00:20:28.499Z,0
2017-09-28T00:21:29.135Z,0
2017-09-28T00:22:29.127Z,0
2017-09-28T00:23:29.127Z,0
2017-09-28T00:24:29.117Z,0
2017-09-28T00:25:28.474Z,0
2017-09-28T00:26:29.101Z,0
2017-09-28T00:27:28.775Z,0
2017-09-28T00:28:29.094Z,0
2017-09-28T00:29:29.090Z,0
2017-09-28T00:30:28.757Z,0
2017-09-28T00:31:29.076Z,0
2017-09-28T00:32:29.074Z,0
2017-09-28T00:33:29.066Z,0
2017-09-28T00:34:28.735Z,0
2017-09-28T00:35:28.729Z,0
2017-09-28T00:36:28.751Z,0
2017-09-28T00:37:28.400Z,0
2017-09-28T00:38:29.030Z,0
2017-09-28T00:39:29.024Z,0
2017-09-28T00:40:28.696Z,0
2017-09-28T00:41:28.373Z,0
2017-09-28T00:42:29.015Z,0
2017-09-28T00:43:28.362Z,0
2017-09-28T00:44:28.679Z,0
2017-09-28T00:45:28.676Z,0
2017-09-28T00:46:28.664Z,0
2017-09-28T00:47:28.659Z,0
2017-09-28T00:48:28.665Z,0
2017-09-28T00:49:28.969Z,0
2017-09-28T00:50:28.660Z,0
2017-09-28T00:51:28.955Z,0
2017-09-28T00:52:28.636Z,0
2017-09-28T00:53:28.955Z,0
2017-09-28T00:54:28.625Z,0
2017-09-28T00:55:28.935Z,0
2017-09-28T00:56:28.948Z,0
2017-09-28T00:57:28.919Z,0
2017-09-28T00:58:28.595Z,0
2017-09-28T00:59:28.596Z,0
2017-09-28T01:00:28.583Z,0
2017-09-28T01:01:28.579Z,0
2017-09-28T01:02:28.577Z,0
2017-09-28T01:03:28.568Z,0
2017-09-28T01:04:28.882Z,0
2017-09-28T01:05:28.555Z,0
2017-09-28T01:06:28.230Z,0
2017-09-28T01:07:28.866Z,0
2017-09-28T01:08:28.218Z,0
2017-09-28T01:09:28.853Z,0
2017-09-28T01:10:28.530Z,0
2017-09-28T01:11:28.529Z,0
2017-09-28T01:12:28.514Z,0
2017-09-28T01:13:28.509Z,0
2017-09-28T01:14:28.502Z,0
2017-09-28T01:15:28.502Z,0
2017-09-28T01:16:28.823Z,0
2017-09-28T01:17:28.162Z,0
2017-09-28T01:18:28.798Z,0
2017-09-28T01:19:28.789Z,0
2017-09-28T01:20:28.722Z,0
2017-09-28T01:21:28.467Z,0
2017-09-28T01:22:28.777Z,0
2017-09-28T01:23:28.798Z,0
2017-09-28T01:24:28.767Z,0
2017-09-28T01:25:28.752Z,0
2017-09-28T01:26:28.753Z,0
2017-09-28T01:27:28.750Z,0
2017-09-28T01:28:28.098Z,0
2017-09-28T01:29:28.734Z,0
2017-09-28T01:30:28.410Z,0
2017-09-28T01:31:28.727Z,0
2017-09-28T01:32:28.391Z,0
2017-09-28T01:33:28.715Z,0
2017-09-28T01:34:28.387Z,0
2017-09-28T01:35:28.698Z,0
2017-09-28T01:36:28.374Z,0
2017-09-28T01:37:28.685Z,0
2017-09-28T01:38:28.680Z,0
2017-09-28T01:39:28.673Z,0
2017-09-28T01:40:28.708Z,0
2017-09-28T01:41:28.022Z,0
2017-09-28T01:42:28.655Z,0
2017-09-28T01:43:28.646Z,0
2017-09-28T01:44:28.006Z,0
2017-09-28T01:45:28.639Z,0
2017-09-28T01:46:28.607Z,0
2017-09-28T01:47:28.305Z,0
2017-09-28T01:48:28.624Z,0
2017-09-28T01:49:28.297Z,0
2017-09-28T01:50:27.965Z,0
2017-09-28T01:51:28.282Z,0
2017-09-28T01:52:28.590Z,0
2017-09-28T01:53:28.605Z,0
2017-09-28T01:54:28.262Z,0
2017-09-28T01:55:28.261Z,0
2017-09-28T01:56:28.254Z,0
2017-09-28T01:57:28.241Z,0
2017-09-28T01:58:28.599Z,0
2017-09-28T01:59:28.558Z,0
2017-09-28T02:00:28.553Z,0
2017-09-28T02:01:28.541Z,0
2017-09-28T02:02:28.539Z,0
2017-09-28T02:03:28.528Z,0
2017-09-28T02:04:28.534Z,0
2017-09-28T02:05:28.198Z,0
2017-09-28T02:06:28.527Z,0
2017-09-28T02:07:28.507Z,0
2017-09-28T02:08:28.185Z,0
2017-09-28T02:09:28.498Z,0
2017-09-28T02:10:28.489Z,0
2017-09-28T02:11:28.489Z,0
2017-09-28T02:12:28.473Z,0
2017-09-28T02:13:28.466Z,0
2017-09-28T02:14:28.475Z,0
2017-09-28T02:15:28.454Z,0
2017-09-28T02:16:28.138Z,0
2017-09-28T02:17:28.443Z,0
2017-09-28T02:18:28.440Z,0
2017-09-28T02:19:28.112Z,0
2017-09-28T02:20:28.104Z,0
2017-09-28T02:21:27.778Z,0
2017-09-28T02:22:28.416Z,0
2017-09-28T02:23:28.413Z,0
2017-09-28T02:24:28.088Z,0
2017-09-28T02:25:28.399Z,0
2017-09-28T02:26:28.387Z,0
2017-09-28T02:27:28.386Z,0
2017-09-28T02:28:28.374Z,0
2017-09-28T02:29:28.372Z,0
2017-09-28T02:30:28.371Z,0
2017-09-28T02:31:28.365Z,0
2017-09-28T02:32:28.362Z,0
2017-09-28T02:33:28.362Z,0
2017-09-28T02:34:28.023Z,0
2017-09-28T02:35:28.013Z,0
2017-09-28T02:36:28.326Z,0
2017-09-28T02:37:28.324Z,0
2017-09-28T02:38:28.315Z,0
2017-09-28T02:39:28.314Z,0
2017-09-28T02:40:27.988Z,0
2017-09-28T02:41:28.294Z,0
2017-09-28T02:42:27.969Z,0
2017-09-28T02:43:28.492Z,0
2017-09-28T02:44:27.958Z,0
2017-09-28T02:45:28.270Z,0
2017-09-28T02:46:28.269Z,0
2017-09-28T02:47:28.265Z,0
2017-09-28T02:48:28.255Z,0
2017-09-28T02:49:27.930Z,0
2017-09-28T02:50:28.243Z,0
2017-09-28T02:51:28.233Z,0
2017-09-28T02:52:28.233Z,0
2017-09-28T02:53:28.227Z,0
2017-09-28T02:54:28.221Z,0
2017-09-28T02:55:28.216Z,0
2017-09-28T02:56:28.205Z,0
2017-09-28T02:57:28.198Z,0
2017-09-28T02:58:28.192Z,0
2017-09-28T02:59:28.191Z,0
2017-09-28T03:00:28.181Z,0
2017-09-28T03:01:28.179Z,0
2017-09-28T03:02:28.172Z,0
2017-09-28T03:03:27.850Z,0
2017-09-28T03:04:27.514Z,0
2017-09-28T03:05:28.151Z,0
2017-09-28T03:06:28.145Z,0
2017-09-28T03:07:28.136Z,0
2017-09-28T03:08:28.128Z,0
2017-09-28T03:09:28.123Z,0
2017-09-28T03:10:28.114Z,0
2017-09-28T03:11:28.114Z,0
2017-09-28T03:12:28.113Z,0
2017-09-28T03:13:28.094Z,0
2017-09-28T03:14:28.096Z,0
2017-09-28T03:15:28.091Z,0
2017-09-28T03:16:28.079Z,0
2017-09-28T03:17:28.077Z,0
2017-09-28T03:18:28.059Z,0
2017-09-28T03:19:28.060Z,0
2017-09-28T03:20:28.051Z,0
2017-09-28T03:21:27.736Z,0
2017-09-28T03:22:28.039Z,0
2017-09-28T03:23:28.036Z,0
2017-09-28T03:24:27.703Z,0
2017-09-28T03:25:28.023Z,0
2017-09-28T03:26:27.054Z,0
2017-09-28T03:27:28.011Z,0
2017-09-28T03:28:27.681Z,0
2017-09-28T03:29:27.675Z,0
2017-09-28T03:30:28.011Z,0
2017-09-28T03:31:27.661Z,0
2017-09-28T03:32:27.656Z,0
2017-09-28T03:33:27.966Z,0
2017-09-28T03:34:27.966Z,0
2017-09-28T03:35:27.956Z,0
2017-09-28T03:36:27.946Z,0
2017-09-28T03:37:27.622Z,0
2017-09-28T03:38:27.617Z,0
2017-09-28T03:39:27.934Z,0
2017-09-28T03:40:27.600Z,0
2017-09-28T03:41:27.278Z,0
2017-09-28T03:42:27.920Z,0
2017-09-28T03:43:27.937Z,0
2017-09-28T03:44:27.576Z,0
2017-09-28T03:45:27.568Z,0
2017-09-28T03:46:27.883Z,0
2017-09-28T03:47:27.877Z,0
2017-09-28T03:48:27.875Z,0
2017-09-28T03:49:27.869Z,0
2017-09-28T03:50:27.885Z,0
2017-09-28T03:51:27.537Z,0
2017-09-28T03:52:27.523Z,0
2017-09-28T03:53:27.839Z,0
2017-09-28T03:54:27.838Z,0
2017-09-28T03:55:27.511Z,0
2017-09-28T03:56:27.495Z,0
2017-09-28T03:57:27.499Z,0
2017-09-28T03:58:27.804Z,0
2017-09-28T03:59:27.480Z,0
2017-09-28T04:00:27.790Z,0
2017-09-28T04:01:27.793Z,0
2017-09-28T04:02:27.779Z,0
2017-09-28T04:03:27.816Z,0
2017-09-28T04:04:27.768Z,0
2017-09-28T04:05:27.763Z,0
2017-09-28T04:06:27.757Z,0
2017-09-28T04:07:27.748Z,0
2017-09-28T04:08:27.428Z,0
2017-09-28T04:09:27.411Z,0
2017-09-28T04:10:27.731Z,0
2017-09-28T04:11:27.398Z,0
2017-09-28T04:12:27.390Z,0
2017-09-28T04:13:27.708Z,0
2017-09-28T04:14:27.378Z,0
2017-09-28T04:15:27.693Z,0
2017-09-28T04:16:27.688Z,0
2017-09-28T04:17:27.677Z,0
2017-09-28T04:18:27.686Z,0
2017-09-28T04:19:27.350Z,0
2017-09-28T04:20:27.660Z,0
2017-09-28T04:21:27.655Z,0
2017-09-28T04:22:27.646Z,0
2017-09-28T04:23:27.635Z,0
2017-09-28T04:24:27.640Z,0
2017-09-28T04:25:27.627Z,0
2017-09-28T04:26:27.622Z,0
2017-09-28T04:27:27.612Z,0
2017-09-28T04:28:27.645Z,0
2017-09-28T04:29:27.318Z,0
2017-09-28T04:30:27.598Z,0
2017-09-28T04:31:27.586Z,0
2017-09-28T04:32:27.578Z,0
2017-09-28T04:33:27.567Z,0
2017-09-28T04:34:27.572Z,0
2017-09-28T04:35:27.561Z,0
2017-09-28T04:36:27.555Z,0
2017-09-28T04:37:27.548Z,0
2017-09-28T04:38:26.902Z,0
2017-09-28T04:39:27.538Z,0
2017-09-28T04:40:27.535Z,0
2017-09-28T04:41:27.203Z,0
2017-09-28T04:42:27.512Z,0
2017-09-28T04:43:27.504Z,0
2017-09-28T04:44:27.513Z,0
2017-09-28T04:45:27.172Z,0
2017-09-28T04:46:27.482Z,0
2017-09-28T04:47:27.158Z,0
2017-09-28T04:48:26.827Z,0
2017-09-28T04:49:27.462Z,0
2017-09-28T04:50:27.146Z,0
2017-09-28T04:51:27.453Z,0
2017-09-28T04:52:26.484Z,0
2017-09-28T04:53:27.433Z,0
2017-09-28T04:54:27.432Z,0
2017-09-28T04:55:27.425Z,0
2017-09-28T04:56:27.420Z,0
2017-09-28T04:57:27.412Z,5
2017-09-28T04:58:27.416Z,5
2017-09-28T04:59:27.396Z,5
2017-09-28T05:00:27.068Z,5
2017-09-28T05:01:27.060Z,5
2017-09-28T05:02:27.376Z,5
2017-09-28T05:03:27.048Z,5
2017-09-28T05:04:27.361Z,10
2017-09-28T05:05:26.716Z,10
2017-09-28T05:06:27.369Z,10
2017-09-28T05:07:27.340Z,10
2017-09-28T05:08:27.009Z,15
2017-09-28T05:09:27.328Z,15
2017-09-28T05:10:27.325Z,15
2017-09-28T05:11:27.315Z,15
2017-09-28T05:12:26.991Z,20
2017-09-28T05:13:26.983Z,20
2017-09-28T05:14:26.977Z,20
2017-09-28T05:15:27.292Z,25
2017-09-28T05:16:27.283Z,25
2017-09-28T05:17:26.959Z,25
2017-09-28T05:18:27.263Z,30
2017-09-28T05:19:27.257Z,30
2017-09-28T05:20:27.257Z,30
2017-09-28T05:21:27.245Z,35
2017-09-28T05:22:27.235Z,35
2017-09-28T05:23:26.915Z,40
2017-09-28T05:24:27.222Z,40
2017-09-28T05:25:27.221Z,40
2017-09-28T05:26:26.891Z,40
2017-09-28T05:27:27.209Z,45
2017-09-28T05:28:27.208Z,45
2017-09-28T05:29:27.191Z,45
2017-09-28T05:30:27.186Z,45
2017-09-28T05:31:27.179Z,45
2017-09-28T05:32:27.183Z,45
2017-09-28T05:33:27.155Z,50
2017-09-28T05:34:27.156Z,50
2017-09-28T05:35:27.144Z,50
2017-09-28T05:36:27.136Z,50
2017-09-28T05:37:27.132Z,55
2017-09-28T05:38:27.130Z,55
2017-09-28T05:39:27.121Z,55
2017-09-28T05:40:26.788Z,60
2017-09-28T05:41:26.468Z,60
2017-09-28T05:42:27.101Z,60
2017-09-28T05:43:26.766Z,60
2017-09-28T05:44:27.083Z,65
2017-09-28T05:45:26.441Z,65
2017-09-28T05:46:26.750Z,65
2017-09-28T05:47:27.062Z,65
2017-09-28T05:48:26.734Z,65
2017-09-28T05:49:27.047Z,65
2017-09-28T05:50:27.036Z,70
2017-09-28T05:51:27.036Z,70
2017-09-28T05:52:26.710Z,70
2017-09-28T05:53:27.019Z,70
2017-09-28T05:54:27.016Z,70
2017-09-28T05:55:27.007Z,75
2017-09-28T05:56:26.992Z,75
2017-09-28T05:57:26.988Z,75
2017-09-28T05:58:26.660Z,75
2017-09-28T05:59:26.973Z,75
2017-09-28T06:00:26.967Z,75
2017-09-28T06:01:26.643Z,75
2017-09-28T06:02:26.635Z,80
2017-09-28T06:03:26.945Z,80
2017-09-28T06:04:26.936Z,85
2017-09-28T06:05:26.617Z,85
2017-09-28T06:06:26.611Z,90
2017-09-28T06:07:26.602Z,95
2017-09-28T06:08:26.917Z,95
2017-09-28T06:09:26.594Z,100
2017-09-28T06:10:26.581Z,100
2017-09-28T06:11:26.889Z,100
2017-09-28T06:12:26.247Z,110
2017-09-28T06:13:26.882Z,105
2017-09-28T06:14:26.864Z,110
2017-09-28T06:15:26.546Z,115
2017-09-28T06:16:26.879Z,120
2017-09-28T06:17:26.209Z,125
2017-09-28T06:18:26.853Z,130
2017-09-28T06:19:26.841Z,130
2017-09-28T06:20:26.833Z,135
2017-09-28T06:21:26.818Z,135
2017-09-28T06:22:26.812Z,135
2017-09-28T06:23:26.820Z,135
2017-09-28T06:24:26.160Z,140
2017-09-28T06:25:26.794Z,140
2017-09-28T06:26:26.467Z,145
2017-09-28T06:27:26.456Z,145
2017-09-28T06:28:26.793Z,150
2017-09-28T06:29:26.442Z,150
2017-09-28T06:30:26.448Z,155
2017-09-28T06:31:26.760Z,160
2017-09-28T06:32:26.420Z,165
2017-09-28T06:33:26.419Z,175
2017-09-28T06:34:26.411Z,175
2017-09-28T06:35:26.718Z,180
2017-09-28T06:36:26.430Z,180
2017-09-28T06:37:26.722Z,180
2017-09-28T06:38:26.716Z,180
2017-09-28T06:39:26.700Z,175
2017-09-28T06:40:26.690Z,175
2017-09-28T06:41:26.364Z,175
2017-09-28T06:42:26.367Z,165
2017-09-28T06:43:26.351Z,165
2017-09-28T06:44:26.346Z,165
2017-09-28T06:45:26.345Z,175
2017-09-28T06:46:26.336Z,170
2017-09-28T06:47:26.646Z,170
2017-09-28T06:48:26.319Z,165
2017-09-28T06:49:26.313Z,165
2017-09-28T06:50:26.633Z,165
2017-09-28T06:51:26.328Z,170
2017-09-28T06:52:26.290Z,185
2017-09-28T06:53:26.288Z,190
2017-09-28T06:54:26.606Z,180
2017-09-28T06:55:26.589Z,225
2017-09-28T06:56:26.264Z,300
2017-09-28T06:57:26.576Z,230
2017-09-28T06:58:26.581Z,250
2017-09-28T06:59:26.570Z,320
2017-09-28T07:00:26.244Z,295
2017-09-28T07:01:26.556Z,600
2017-09-28T07:02:25.910Z,610
2017-09-28T07:03:26.540Z,615
2017-09-28T07:04:26.537Z,630
2017-09-28T07:05:26.209Z,645
2017-09-28T07:06:26.215Z,655
2017-09-28T07:07:26.202Z,660
2017-09-28T07:08:26.518Z,660
2017-09-28T07:09:26.516Z,670
2017-09-28T07:10:26.191Z,675
2017-09-28T07:11:26.182Z,685
2017-09-28T07:12:26.178Z,700
2017-09-28T07:13:26.496Z,695
2017-09-28T07:14:26.502Z,705
2017-09-28T07:15:26.496Z,715
2017-09-28T07:16:25.847Z,685
2017-09-28T07:17:26.484Z,600
2017-09-28T07:18:26.155Z,575
2017-09-28T07:19:26.479Z,575
2017-09-28T07:20:26.471Z,585
2017-09-28T07:21:26.152Z,595
2017-09-28T07:22:26.473Z,595
2017-09-28T07:23:26.502Z,600
2017-09-28T07:24:26.462Z,605
2017-09-28T07:25:26.462Z,605
2017-09-28T07:26:26.465Z,605
2017-09-28T07:27:25.825Z,610
2017-09-28T07:28:26.131Z,615
2017-09-28T07:29:26.139Z,630
2017-09-28T07:30:26.458Z,630
2017-09-28T07:31:26.137Z,635
2017-09-28T07:32:26.130Z,635
2017-09-28T07:33:26.134Z,635
2017-09-28T07:34:26.453Z,650
2017-09-28T07:35:26.446Z,655
2017-09-28T07:36:26.124Z,665
2017-09-28T07:37:26.450Z,670
2017-09-28T07:38:25.800Z,675
2017-09-28T07:39:26.156Z,680
2017-09-28T07:40:26.476Z,685
2017-09-28T07:41:26.123Z,690
2017-09-28T07:42:26.120Z,690
2017-09-28T07:43:26.438Z,690
2017-09-28T07:44:26.695Z,690
2017-09-28T07:45:26.118Z,690
2017-09-28T07:46:26.437Z,690
2017-09-28T07:47:26.446Z,695
2017-09-28T07:48:26.438Z,690
2017-09-28T07:49:26.431Z,525
2017-09-28T07:50:26.113Z,360
2017-09-28T07:51:26.440Z,345
2017-09-28T07:52:26.441Z,340
2017-09-28T07:53:26.434Z,340
2017-09-28T07:54:26.109Z,340
2017-09-28T07:55:26.430Z,340
2017-09-28T07:56:25.791Z,340
2017-09-28T07:57:26.432Z,345
2017-09-28T07:58:26.418Z,345
2017-09-28T07:59:26.101Z,345
2017-09-28T08:00:26.425Z,350
2017-09-28T08:01:26.416Z,345
2017-09-28T08:02:26.090Z,350
2017-09-28T08:03:25.768Z,350
2017-09-28T08:04:26.413Z,345
2017-09-28T08:05:25.769Z,345
2017-09-28T08:06:26.400Z,345
2017-09-28T08:07:26.405Z,345
2017-09-28T08:08:26.401Z,340
2017-09-28T08:09:25.752Z,340
2017-09-28T08:10:26.066Z,340
2017-09-28T08:11:26.383Z,340
2017-09-28T08:12:26.061Z,340
2017-09-28T08:13:26.060Z,340
2017-09-28T08:14:26.410Z,345
2017-09-28T08:15:26.051Z,340
2017-09-28T08:16:26.370Z,340
2017-09-28T08:17:26.048Z,340
2017-09-28T08:18:26.036Z,340
2017-09-28T08:19:26.359Z,340
2017-09-28T08:20:26.355Z,340
2017-09-28T08:21:26.025Z,340
2017-09-28T08:22:26.347Z,340
2017-09-28T08:23:26.340Z,340
2017-09-28T08:24:25.698Z,335
2017-09-28T08:25:26.333Z,335
2017-09-28T08:26:26.338Z,335
2017-09-28T08:27:26.005Z,335
2017-09-28T08:28:26.001Z,335
2017-09-28T08:29:25.999Z,335
2017-09-28T08:30:26.318Z,335
2017-09-28T08:31:26.306Z,335
2017-09-28T08:32:25.986Z,335
2017-09-28T08:33:25.983Z,335
2017-09-28T08:34:26.301Z,335
2017-09-28T08:35:26.292Z,335
2017-09-28T08:36:26.289Z,330
2017-09-28T08:37:26.289Z,330
2017-09-28T08:38:26.278Z,330
2017-09-28T08:39:25.959Z,325
2017-09-28T08:40:25.953Z,325
2017-09-28T08:41:26.278Z,325
2017-09-28T08:42:25.953Z,325
2017-09-28T08:43:25.951Z,325
2017-09-28T08:44:26.257Z,330
2017-09-28T08:45:25.935Z,330
2017-09-28T08:46:26.250Z,330
2017-09-28T08:47:26.135Z,325
2017-09-28T08:48:25.605Z,325
2017-09-28T08:49:26.240Z,325
2017-09-28T08:50:25.913Z,325
2017-09-28T08:51:26.233Z,325
2017-09-28T08:52:25.909Z,325
2017-09-28T08:53:26.425Z,320
2017-09-28T08:54:25.897Z,320
2017-09-28T08:55:26.213Z,320
2017-09-28T08:56:25.897Z,320
2017-09-28T08:57:25.888Z,315
2017-09-28T08:58:25.886Z,315
2017-09-28T08:59:25.889Z,315
2017-09-28T09:00:26.221Z,315
2017-09-28T09:01:26.194Z,315
2017-09-28T09:02:26.195Z,315
2017-09-28T09:03:25.864Z,320
2017-09-28T09:04:26.182Z,315
2017-09-28T09:05:26.180Z,310
2017-09-28T09:06:25.893Z,310
2017-09-28T09:07:26.172Z,310
2017-09-28T09:08:25.840Z,310
2017-09-28T09:09:25.517Z,310
2017-09-28T09:10:26.154Z,310
2017-09-28T09:11:25.834Z,310
2017-09-28T09:12:25.836Z,310
2017-09-28T09:13:25.826Z,310
2017-09-28T09:14:25.821Z,310
2017-09-28T09:15:25.813Z,310
2017-09-28T09:16:26.135Z,310
2017-09-28T09:17:25.842Z,300
2017-09-28T09:18:26.131Z,300
2017-09-28T09:19:25.799Z,300
2017-09-28T09:20:25.794Z,300
2017-09-28T09:21:25.475Z,295
2017-09-28T09:22:25.791Z,295
2017-09-28T09:23:26.114Z,295
2017-09-28T09:24:26.100Z,295
2017-09-28T09:25:26.100Z,295
2017-09-28T09:26:25.130Z,290
2017-09-28T09:27:26.086Z,295
2017-09-28T09:28:25.767Z,290
2017-09-28T09:29:25.828Z,295
2017-09-28T09:30:25.990Z,295
2017-09-28T09:31:26.074Z,290
2017-09-28T09:32:25.755Z,290
2017-09-28T09:33:25.744Z,290
2017-09-28T09:34:26.057Z,290
2017-09-28T09:35:25.745Z,285
2017-09-28T09:36:26.056Z,285
2017-09-28T09:37:26.152Z,285
2017-09-28T09:38:26.045Z,285
2017-09-28T09:39:25.722Z,285
2017-09-28T09:40:26.045Z,285
2017-09-28T09:41:26.045Z,285
2017-09-28T09:42:26.040Z,285
2017-09-28T09:43:25.387Z,285
2017-09-28T09:44:25.706Z,280
2017-09-28T09:45:26.015Z,275
2017-09-28T09:46:25.695Z,265
2017-09-28T09:47:25.693Z,260
2017-09-28T09:48:25.682Z,260
2017-09-28T09:49:26.005Z,270
2017-09-28T09:50:25.355Z,260
2017-09-28T09:51:25.996Z,255
2017-09-28T09:52:25.352Z,255
2017-09-28T09:53:25.667Z,250
2017-09-28T09:54:25.343Z,245
2017-09-28T09:55:25.975Z,245
2017-09-28T09:56:25.857Z,255
2017-09-28T09:57:25.999Z,250
2017-09-28T09:58:25.328Z,245
2017-09-28T09:59:26.180Z,245
2017-09-28T10:00:26.163Z,240
2017-09-28T10:01:25.640Z,245
2017-09-28T10:02:25.953Z,255
2017-09-28T10:03:25.949Z,255
2017-09-28T10:04:25.623Z,255
2017-09-28T10:05:25.934Z,255
2017-09-28T10:06:25.615Z,260
2017-09-28T10:07:25.628Z,260
2017-09-28T10:08:25.920Z,260
2017-09-28T10:09:25.605Z,260
2017-09-28T10:10:24.956Z,260
2017-09-28T10:11:25.593Z,260
2017-09-28T10:12:25.587Z,260
2017-09-28T10:13:25.267Z,260
2017-09-28T10:14:25.265Z,255
2017-09-28T10:15:25.907Z,255
2017-09-28T10:16:25.892Z,255
2017-09-28T10:17:25.571Z,250
2017-09-28T10:18:25.563Z,250
2017-09-28T10:19:25.881Z,250
2017-09-28T10:20:25.874Z,250
2017-09-28T10:21:26.103Z,250
2017-09-28T10:22:25.872Z,250
2017-09-28T10:23:25.546Z,250
2017-09-28T10:24:25.535Z,250
2017-09-28T10:25:25.873Z,250
2017-09-28T10:26:25.544Z,250
2017-09-28T10:27:25.847Z,250
2017-09-28T10:28:25.839Z,250
2017-09-28T10:29:25.409Z,250
2017-09-28T10:30:25.518Z,250
2017-09-28T10:31:25.842Z,250
2017-09-28T10:32:25.840Z,250
2017-09-28T10:33:25.820Z,245
2017-09-28T10:34:25.505Z,245
2017-09-28T10:35:25.815Z,245
2017-09-28T10:36:25.905Z,240
2017-09-28T10:37:25.497Z,240
2017-09-28T10:38:25.816Z,250
2017-09-28T10:39:25.498Z,255
2017-09-28T10:40:25.169Z,260
2017-09-28T10:41:25.475Z,270
2017-09-28T10:42:25.790Z,275
2017-09-28T10:43:25.146Z,275
2017-09-28T10:44:25.786Z,280
2017-09-28T10:45:25.464Z,285
2017-09-28T10:46:25.787Z,290
2017-09-28T10:47:25.772Z,295
2017-09-28T10:48:25.454Z,310
2017-09-28T10:49:25.767Z,315
2017-09-28T10:50:25.123Z,330
2017-09-28T10:51:25.120Z,330
2017-09-28T10:52:25.646Z,335
2017-09-28T10:53:25.750Z,330
2017-09-28T10:54:25.106Z,325
2017-09-28T10:55:25.435Z,320
2017-09-28T10:56:25.742Z,310
2017-09-28T10:57:25.743Z,305
2017-09-28T10:58:25.738Z,305
2017-09-28T10:59:25.737Z,300
2017-09-28T11:00:25.734Z,295
2017-09-28T11:01:25.731Z,295
2017-09-28T11:02:25.732Z,300
2017-09-28T11:03:25.085Z,300
2017-09-28T11:04:25.723Z,300
2017-09-28T11:05:25.720Z,310
2017-09-28T11:06:25.399Z,315
2017-09-28T11:07:25.390Z,330
2017-09-28T11:08:25.074Z,340
2017-09-28T11:09:25.070Z,340
2017-09-28T11:10:25.700Z,340
2017-09-28T11:11:25.404Z,340
2017-09-28T11:12:25.610Z,340
2017-09-28T11:13:25.736Z,345
2017-09-28T11:14:25.383Z,350
2017-09-28T11:15:25.370Z,355
2017-09-28T11:16:25.044Z,355
2017-09-28T11:17:25.369Z,365
2017-09-28T11:18:25.047Z,375
2017-09-28T11:19:25.043Z,385
2017-09-28T11:20:25.675Z,395
2017-09-28T11:21:25.681Z,415
2017-09-28T11:22:25.741Z,435
2017-09-28T11:23:25.670Z,450
2017-09-28T11:24:25.031Z,465
2017-09-28T11:25:25.877Z,475
2017-09-28T11:26:25.350Z,480
2017-09-28T11:27:25.347Z,475
2017-09-28T11:28:25.352Z,470
2017-09-28T11:29:24.701Z,465
2017-09-28T11:30:25.341Z,465
2017-09-28T11:31:25.332Z,460
2017-09-28T11:32:25.652Z,455
2017-09-28T11:33:25.336Z,455
2017-09-28T11:34:25.334Z,450
2017-09-28T11:35:25.652Z,435
2017-09-28T11:36:25.329Z,430
2017-09-28T11:37:25.646Z,410
2017-09-28T11:38:25.323Z,410
2017-09-28T11:39:25.651Z,395
2017-09-28T11:40:25.653Z,385
2017-09-28T11:41:25.848Z,375
2017-09-28T11:42:25.643Z,360
2017-09-28T11:43:25.317Z,350
2017-09-28T11:44:25.320Z,345
2017-09-28T11:45:25.321Z,335
2017-09-28T11:46:25.319Z,330
2017-09-28T11:47:25.634Z,330
2017-09-28T11:48:25.322Z,335
2017-09-28T11:49:25.313Z,340
2017-09-28T11:50:25.310Z,345
2017-09-28T11:51:25.313Z,350
2017-09-28T11:52:25.620Z,350
2017-09-28T11:53:24.985Z,350
2017-09-28T11:54:25.626Z,345
2017-09-28T11:55:25.302Z,340
2017-09-28T11:56:25.304Z,340
2017-09-28T11:57:25.307Z,340
2017-09-28T11:58:25.623Z,345
2017-09-28T11:59:25.299Z,350
2017-09-28T12:00:25.622Z,350
2017-09-28T12:01:25.306Z,350
2017-09-28T12:02:25.300Z,350
2017-09-28T12:03:25.616Z,355
2017-09-28T12:04:25.291Z,360
2017-09-28T12:05:25.621Z,360
2017-09-28T12:06:25.294Z,360
2017-09-28T12:07:25.300Z,365
2017-09-28T12:08:25.294Z,365
2017-09-28T12:09:25.621Z,360
2017-09-28T12:10:25.610Z,360
2017-09-28T12:11:25.291Z,360
2017-09-28T12:12:25.279Z,350
2017-09-28T12:13:24.653Z,340
2017-09-28T12:14:25.288Z,330
2017-09-28T12:15:25.293Z,320
2017-09-28T12:16:25.617Z,315
2017-09-28T12:17:24.958Z,305
2017-09-28T12:18:24.964Z,300
2017-09-28T12:19:24.952Z,295
2017-09-28T12:20:25.983Z,295
2017-09-28T12:21:25.274Z,300
2017-09-28T12:22:25.989Z,300
2017-09-28T12:23:24.956Z,300
2017-09-28T12:24:25.597Z,300
2017-09-28T12:25:24.950Z,305
2017-09-28T12:26:25.272Z,310
2017-09-28T12:27:25.290Z,320
2017-09-28T12:28:25.267Z,325
2017-09-28T12:29:25.302Z,330
2017-09-28T12:30:25.271Z,330
2017-09-28T12:31:25.597Z,325
2017-09-28T12:32:24.945Z,325
2017-09-28T12:33:25.589Z,330
2017-09-28T12:34:25.264Z,330
2017-09-28T12:35:25.586Z,325
2017-09-28T12:36:25.267Z,325
2017-09-28T12:37:25.588Z,325
2017-09-28T12:38:25.264Z,320
2017-09-28T12:39:25.274Z,315
2017-09-28T12:40:25.556Z,315
2017-09-28T12:41:25.257Z,305
2017-09-28T12:42:25.250Z,305
2017-09-28T12:43:24.936Z,310
2017-09-28T12:44:25.259Z,315
2017-09-28T12:45:25.247Z,315
2017-09-28T12:46:25.249Z,320
2017-09-28T12:47:24.926Z,325
2017-09-28T12:48:25.252Z,320
2017-09-28T12:49:25.251Z,325
2017-09-28T12:50:25.283Z,320
2017-09-28T12:51:25.243Z,315
2017-09-28T12:52:25.249Z,310
2017-09-28T12:53:24.923Z,310
2017-09-28T12:54:24.928Z,315
2017-09-28T12:55:25.285Z,320
2017-09-28T12:56:25.242Z,320
2017-09-28T12:57:25.253Z,320
2017-09-28T12:58:25.238Z,310
2017-09-28T12:59:25.235Z,300
2017-09-28T13:00:25.442Z,295
2017-09-28T13:01:25.236Z,295
2017-09-28T13:02:25.553Z,290
2017-09-28T13:03:25.249Z,290
2017-09-28T13:04:25.235Z,295
2017-09-28T13:05:25.558Z,295
2017-09-28T13:06:25.232Z,300
2017-09-28T13:07:25.232Z,305
2017-09-28T13:08:25.615Z,310
2017-09-28T13:09:24.926Z,320
2017-09-28T13:10:24.908Z,325
2017-09-28T13:11:25.538Z,335
2017-09-28T13:12:24.910Z,340
2017-09-28T13:13:25.229Z,350
2017-09-28T13:14:24.903Z,350
2017-09-28T13:15:25.542Z,350
2017-09-28T13:16:24.908Z,350
2017-09-28T13:17:24.582Z,350
2017-09-28T13:18:25.221Z,355
2017-09-28T13:19:24.896Z,350
2017-09-28T13:20:25.220Z,350
2017-09-28T13:21:25.219Z,345
2017-09-28T13:22:25.545Z,340
2017-09-28T13:23:24.577Z,345
2017-09-28T13:24:24.893Z,340
2017-09-28T13:25:24.893Z,335
2017-09-28T13:26:25.220Z,335
2017-09-28T13:27:24.895Z,330
2017-09-28T13:28:24.896Z,325
2017-09-28T13:29:25.533Z,315
2017-09-28T13:30:25.212Z,310
2017-09-28T13:31:24.894Z,300
2017-09-28T13:32:24.896Z,300
2017-09-28T13:33:25.535Z,300
2017-09-28T13:34:25.218Z,300
2017-09-28T13:35:25.213Z,290
2017-09-28T13:36:25.206Z,280
2017-09-28T13:37:25.529Z,260
2017-09-28T13:38:25.209Z,250
2017-09-28T13:39:25.207Z,245
2017-09-28T13:40:25.534Z,240
2017-09-28T13:41:25.210Z,235
2017-09-28T13:42:25.517Z,230
2017-09-28T13:43:25.559Z,225
2017-09-28T13:44:24.885Z,230
2017-09-28T13:45:24.886Z,235
2017-09-28T13:46:25.201Z,240
2017-09-28T13:47:25.200Z,240
2017-09-28T13:48:25.209Z,245
2017-09-28T13:49:25.527Z,245
2017-09-28T13:50:25.902Z,250
2017-09-28T13:51:25.525Z,255
2017-09-28T13:52:25.529Z,255
2017-09-28T13:53:24.880Z,260
2017-09-28T13:54:25.195Z,265
2017-09-28T13:55:25.198Z,275
2017-09-28T13:56:24.881Z,280
2017-09-28T13:57:25.195Z,290
2017-09-28T13:58:25.196Z,290
2017-09-28T13:59:25.197Z,295
2017-09-28T14:00:25.520Z,300
2017-09-28T14:01:25.193Z,305
2017-09-28T14:02:25.514Z,305
2017-09-28T14:03:25.195Z,305
2017-09-28T14:04:25.511Z,305
2017-09-28T14:05:25.508Z,305
2017-09-28T14:06:25.510Z,305
2017-09-28T14:07:24.866Z,300
2017-09-28T14:08:25.193Z,305
2017-09-28T14:09:24.865Z,300